Time;durP1;ratioP1;P1;durP2;ratioP2;P2;SDS_P1;SDS_P2;PMS_P1;PMS_P2;Temp;Humidity;BMP_temperature;BMP_pressure;BME280_temperature;BME280_humidity;BME280_pressure;Samples;Min_cycle;Max_cycle;Signal;HPM_P1;HPM_P2
2021/06/14 00:00:56;;;;;;;12.07;4.70;;;15.80;92.90;;;;;;4995190;28;20042;-75
2021/06/14 00:03:22;;;;;;;12.95;4.22;;;15.80;93.00;;;;;;4990848;28;20413;-77
2021/06/14 00:05:48;;;;;;;8.02;4.35;;;15.70;93.10;;;;;;4991565;28;20050;-75
2021/06/14 00:08:17;;;;;;;9.77;5.15;;;15.70;93.30;;;;;;4990596;28;20066;-74
2021/06/14 00:10:44;;;;;;;10.43;4.18;;;15.70;93.60;;;;;;4990784;28;20121;-75
2021/06/14 00:13:11;;;;;;;7.50;4.50;;;15.60;93.60;;;;;;4990521;28;20034;-76
2021/06/14 00:15:38;;;;;;;10.70;5.18;;;15.60;93.80;;;;;;4990562;28;20370;-76
2021/06/14 00:18:05;;;;;;;13.50;4.97;;;15.60;93.90;;;;;;4990366;28;20104;-74
2021/06/14 00:20:31;;;;;;;12.93;4.28;;;15.60;94.00;;;;;;4992147;28;20031;-74
2021/06/14 00:22:57;;;;;;;8.70;4.43;;;15.50;94.10;;;;;;4973926;28;20042;-74
2021/06/14 00:25:26;;;;;;;14.52;4.55;;;15.40;94.10;;;;;;4982974;28;20133;-74
2021/06/14 00:27:52;;;;;;;10.27;4.07;;;15.50;94.20;;;;;;4990493;28;20137;-75
2021/06/14 00:30:38;;;;;;;10.50;4.85;;;15.40;94.40;;;;;;4990397;28;20373;-75
2021/06/14 00:33:04;;;;;;;11.52;4.18;;;15.40;94.50;;;;;;4990499;28;20026;-73
2021/06/14 00:35:30;;;;;;;12.77;4.25;;;15.40;94.50;;;;;;4993319;28;20097;-75
2021/06/14 00:37:56;;;;;;;8.70;4.20;;;15.40;94.60;;;;;;4989533;28;20464;-75
2021/06/14 00:40:22;;;;;;;9.65;4.43;;;15.40;94.80;;;;;;4990334;28;20042;-75
2021/06/14 00:42:48;;;;;;;9.40;5.00;;;15.30;94.80;;;;;;4990301;28;20035;-75
2021/06/14 00:45:16;;;;;;;11.13;4.85;;;15.30;94.80;;;;;;4990247;28;20066;-76
2021/06/14 00:47:43;;;;;;;;;;;15.30;94.90;;;;;;4992378;28;20038;-75
2021/06/14 00:50:10;;;;;;;9.57;4.47;;;15.30;94.80;;;;;;4990309;28;19972;-76
2021/06/14 00:52:36;;;;;;;10.35;4.70;;;15.30;95.00;;;;;;4990172;28;20121;-76
2021/06/14 00:55:03;;;;;;;10.20;4.55;;;15.20;95.10;;;;;;4980858;28;20043;-75
2021/06/14 00:57:29;;;;;;;11.02;4.75;;;15.20;95.30;;;;;;4975586;28;20031;-76
2021/06/14 00:59:55;;;;;;;10.13;4.38;;;15.10;95.30;;;;;;4992112;28;20030;-76
2021/06/14 01:02:20;;;;;;;11.60;4.43;;;15.10;95.40;;;;;;4990196;28;20525;-75
2021/06/14 01:04:46;;;;;;;9.27;4.30;;;15.20;95.50;;;;;;4990115;28;20145;-75
2021/06/14 01:07:13;;;;;;;12.48;4.68;;;15.10;95.50;;;;;;4979716;28;20039;-75
2021/06/14 01:09:39;;;;;;;11.52;4.60;;;15.10;95.50;;;;;;4969620;28;20038;-75
2021/06/14 01:12:08;;;;;;;9.10;4.63;;;15.10;95.70;;;;;;4970028;28;20019;-75
2021/06/14 01:14:59;;;;;;;5.97;3.85;;;15.00;95.60;;;;;;4972053;28;20023;-75
2021/06/14 01:17:34;;;;;;;9.13;4.20;;;15.00;95.60;;;;;;5005732;28;20524;-76
2021/06/14 01:20:33;;;;;;;9.23;4.75;;;15.00;95.70;;;;;;4993929;28;20428;-74
2021/06/14 01:23:02;;;;;;;11.32;4.90;;;15.10;95.80;;;;;;4977287;28;20035;-75
2021/06/14 01:25:41;;;;;;;13.70;5.05;;;15.10;95.60;;;;;;4986835;28;20093;-76
2021/06/14 01:28:08;;;;;;;13.35;5.07;;;15.10;95.60;;;;;;4992776;28;20039;-73
2021/06/14 01:30:37;;;;;;;8.30;4.78;;;15.10;95.70;;;;;;4993502;28;20064;-76
2021/06/14 01:33:06;;;;;;;9.70;5.05;;;15.10;95.90;;;;;;4993792;28;20092;-75
2021/06/14 01:35:36;;;;;;;12.82;4.70;;;15.10;95.90;;;;;;5001024;28;20022;-75
2021/06/14 01:38:03;;;;;;;10.52;4.68;;;15.10;95.90;;;;;;5013208;28;20084;-75
2021/06/14 01:40:31;;;;;;;14.47;5.33;;;15.10;95.90;;;;;;5013191;28;20041;-75
2021/06/14 01:43:00;;;;;;;9.43;4.32;;;15.10;96.00;;;;;;5013194;28;20033;-74
2021/06/14 01:45:28;;;;;;;10.77;4.72;;;15.10;95.90;;;;;;5013153;28;20506;-74
2021/06/14 01:47:56;;;;;;;11.32;4.88;;;15.10;96.00;;;;;;5014566;28;20109;-75
2021/06/14 01:50:22;;;;;;;11.45;4.90;;;15.00;96.00;;;;;;5013490;28;20124;-75
2021/06/14 01:52:48;;;;;;;11.32;4.88;;;15.00;96.00;;;;;;5013242;28;20154;-74
2021/06/14 01:55:16;;;;;;;10.68;5.45;;;14.90;96.20;;;;;;5012027;28;20173;-75
2021/06/14 01:57:42;;;;;;;14.75;5.22;;;14.80;96.30;;;;;;5013342;28;20032;-74
2021/06/14 02:00:10;;;;;;;12.50;4.57;;;14.80;96.30;;;;;;5013078;28;20097;-75
2021/06/14 02:02:37;;;;;;;10.02;4.97;;;14.80;96.30;;;;;;5014628;28;20022;-75
2021/06/14 02:05:04;;;;;;;12.75;5.68;;;14.70;96.40;;;;;;5011713;28;20053;-74
2021/06/14 02:07:31;;;;;;;13.27;4.82;;;14.80;96.50;;;;;;5012552;28;20034;-74
2021/06/14 02:09:56;;;;;;;7.88;4.38;;;14.80;96.40;;;;;;5011358;28;20053;-73
2021/06/14 02:12:23;;;;;;;15.43;5.05;;;14.80;96.40;;;;;;5012578;28;20046;-75
2021/06/14 02:14:51;;;;;;;11.02;4.57;;;14.80;96.40;;;;;;5014116;28;20149;-74
2021/06/14 02:17:23;;;;;;;11.57;4.47;;;14.70;96.40;;;;;;5012477;28;20042;-75
2021/06/14 02:19:50;;;;;;;9.88;4.60;;;14.70;96.50;;;;;;5011433;28;20594;-76
2021/06/14 02:22:18;;;;;;;9.88;4.32;;;14.70;96.50;;;;;;5011236;28;20440;-76
2021/06/14 02:24:44;;;;;;;10.50;4.97;;;14.60;96.60;;;;;;5012124;28;20103;-76
2021/06/14 02:27:13;;;;;;;9.32;4.40;;;14.60;96.60;;;;;;5012163;28;20038;-76
2021/06/14 02:29:40;;;;;;;12.45;4.72;;;14.60;96.80;;;;;;5013031;28;20415;-74
2021/06/14 02:32:06;;;;;;;11.13;5.28;;;14.60;96.90;;;;;;5012199;28;20133;-75
2021/06/14 02:34:33;;;;;;;11.52;4.05;;;14.60;96.90;;;;;;5012287;28;20033;-74
2021/06/14 02:37:01;;;;;;;9.63;4.55;;;14.60;96.90;;;;;;5012136;28;20033;-74
2021/06/14 02:39:30;;;;;;;13.70;5.40;;;14.60;96.90;;;;;;5011837;28;20038;-74
2021/06/14 02:41:56;;;;;;;9.98;4.60;;;14.60;97.00;;;;;;5010758;28;20368;-74
2021/06/14 02:44:24;;;;;;;10.70;4.90;;;14.60;96.90;;;;;;5012514;28;20030;-75
2021/06/14 02:46:53;;;;;;;8.55;4.05;;;14.50;97.00;;;;;;5012665;28;20038;-75
2021/06/14 02:49:19;;;;;;;10.13;4.75;;;14.50;97.10;;;;;;5011793;28;20042;-74
2021/06/14 02:51:47;;;;;;;9.38;4.53;;;14.40;97.10;;;;;;5011895;28;20069;-75
2021/06/14 02:54:26;;;;;;;9.20;4.28;;;14.50;97.30;;;;;;5011697;28;20097;-74
2021/06/14 02:56:55;;;;;;;8.27;4.00;;;14.50;97.40;;;;;;5012416;28;20337;-76
2021/06/14 02:59:23;;;;;;;11.02;4.95;;;14.50;97.50;;;;;;5011701;28;20072;-75
2021/06/14 03:01:50;;;;;;;9.50;4.85;;;14.50;97.40;;;;;;5011801;28;20084;-75
2021/06/14 03:04:17;;;;;;;15.20;6.87;;;14.60;97.20;;;;;;5010597;28;20073;-74
2021/06/14 03:06:52;;;;;;;9.32;4.53;;;14.60;97.30;;;;;;5011133;28;20073;-75
2021/06/14 03:09:18;;;;;;;12.57;4.50;;;14.60;96.80;;;;;;5011874;28;20156;-74
2021/06/14 03:11:45;;;;;;;12.82;4.95;;;14.70;97.20;;;;;;5013101;28;20030;-75
2021/06/14 03:14:17;;;;;;;9.27;4.88;;;14.60;97.20;;;;;;5026835;28;20045;-75
2021/06/14 03:16:45;;;;;;;9.85;5.00;;;14.70;97.20;;;;;;5011553;28;20052;-75
2021/06/14 03:19:13;;;;;;;11.77;4.65;;;14.70;97.20;;;;;;5011155;28;20045;-75
2021/06/14 03:21:39;;;;;;;9.90;4.85;;;14.70;97.40;;;;;;5011129;28;20367;-76
2021/06/14 03:24:05;;;;;;;12.82;4.72;;;14.70;97.20;;;;;;5010999;28;20030;-76
2021/06/14 03:26:42;;;;;;;8.80;4.15;;;14.70;97.10;;;;;;5012758;28;20085;-75
2021/06/14 03:29:10;;;;;;;12.82;5.00;;;14.70;97.00;;;;;;5011022;28;20205;-76
2021/06/14 03:31:37;;;;;;;13.43;5.10;;;14.60;97.10;;;;;;5010964;28;20456;-75
2021/06/14 03:34:04;;;;;;;13.27;4.75;;;14.70;97.00;;;;;;5010618;28;20046;-74
2021/06/14 03:36:31;;;;;;;10.83;4.77;;;14.60;97.10;;;;;;5010949;28;20096;-73
2021/06/14 03:38:58;;;;;;;10.93;5.50;;;14.60;97.10;;;;;;5010942;28;20458;-73
2021/06/14 03:41:24;;;;;;;11.80;5.00;;;14.60;97.10;;;;;;5011634;28;20028;-74
2021/06/14 03:43:51;;;;;;;14.38;4.85;;;14.70;97.00;;;;;;5010493;28;20057;-75
2021/06/14 03:46:17;;;;;;;10.68;4.50;;;14.70;96.90;;;;;;5010945;28;20052;-76
2021/06/14 03:48:42;;;;;;;10.13;4.35;;;14.70;97.00;;;;;;5009763;28;20575;-73
2021/06/14 03:51:08;;;;;;;9.48;4.38;;;14.70;96.90;;;;;;5010170;28;20105;-75
2021/06/14 03:53:34;;;;;;;13.55;4.63;;;14.70;96.90;;;;;;5012334;28;20033;-75
2021/06/14 03:56:05;;;;;;;13.25;4.60;;;14.70;96.80;;;;;;5010592;28;20042;-76
2021/06/14 03:58:31;;;;;;;9.00;3.92;;;14.70;96.80;;;;;;5010420;28;20041;-75
2021/06/14 04:00:58;;;;;;;10.52;4.13;;;14.70;96.80;;;;;;5010569;28;20038;-74
2021/06/14 04:03:27;;;;;;;12.43;3.95;;;14.80;96.80;;;;;;5010821;28;20105;-76
2021/06/14 04:05:54;;;;;;;10.30;4.20;;;14.80;96.60;;;;;;5010743;28;20041;-75
2021/06/14 04:08:20;;;;;;;11.60;4.40;;;14.80;96.60;;;;;;5010667;28;20070;-76
2021/06/14 04:10:46;;;;;;;10.23;4.40;;;14.80;96.60;;;;;;5010376;28;20117;-74
2021/06/14 04:13:11;;;;;;;10.65;4.15;;;14.80;96.50;;;;;;5009920;28;20113;-75
2021/06/14 04:15:37;;;;;;;12.13;4.72;;;14.90;96.50;;;;;;5009640;28;20087;-75
2021/06/14 04:18:04;;;;;;;9.27;3.97;;;14.90;96.50;;;;;;5010769;28;20030;-75
2021/06/14 04:20:29;;;;;;;9.57;4.05;;;14.90;96.40;;;;;;5010792;28;20049;-76
2021/06/14 04:22:55;;;;;;;8.00;3.95;;;14.90;96.40;;;;;;5009330;28;20050;-75
2021/06/14 04:25:21;;;;;;;10.55;4.30;;;15.00;96.50;;;;;;5010188;28;20026;-76
2021/06/14 04:27:46;;;;;;;9.20;4.13;;;15.00;96.40;;;;;;5009995;28;20056;-75
2021/06/14 04:30:14;;;;;;;6.63;3.58;;;15.10;96.40;;;;;;5009977;28;20400;-74
2021/06/14 04:32:40;;;;;;;8.43;3.80;;;15.10;96.40;;;;;;5011598;28;20025;-74
2021/06/14 04:35:07;;;;;;;17.77;4.13;;;15.10;96.20;;;;;;5009865;28;20049;-75
2021/06/14 04:37:33;;;;;;;11.43;4.57;;;15.20;96.30;;;;;;5009306;28;20034;-76
2021/06/14 04:39:59;;;;;;;11.65;4.28;;;15.20;96.20;;;;;;5010017;28;20120;-75
2021/06/14 04:42:27;;;;;;;9.00;3.80;;;15.30;96.00;;;;;;5008733;28;20117;-75
2021/06/14 04:44:53;;;;;;;14.45;4.13;;;15.30;95.90;;;;;;5011107;28;20042;-76
2021/06/14 04:47:19;;;;;;;8.88;4.25;;;15.30;95.80;;;;;;5010291;28;20061;-76
2021/06/14 04:49:45;;;;;;;12.48;3.97;;;15.40;95.80;;;;;;5009760;28;20523;-76
2021/06/14 04:52:11;;;;;;;14.70;4.55;;;15.40;96.00;;;;;;5009713;28;20101;-76
2021/06/14 04:54:37;;;;;;;10.55;3.85;;;15.50;95.60;;;;;;5015759;28;20125;-74
2021/06/14 04:57:02;;;;;;;9.10;3.90;;;15.50;95.80;;;;;;5017394;28;20022;-76
2021/06/14 04:59:28;;;;;;;12.32;4.25;;;15.60;95.60;;;;;;5017860;28;20388;-74
2021/06/14 05:01:54;;;;;;;12.40;4.45;;;15.70;95.70;;;;;;5016384;28;20046;-75
2021/06/14 05:04:19;;;;;;;12.60;4.57;;;15.70;95.50;;;;;;5016266;28;20125;-76
2021/06/14 05:06:45;;;;;;;10.70;4.47;;;15.80;95.50;;;;;;5016245;28;20538;-74
2021/06/14 05:09:10;;;;;;;9.30;3.95;;;15.90;95.40;;;;;;5014636;28;20036;-74
2021/06/14 05:11:36;;;;;;;10.13;3.65;;;15.90;95.30;;;;;;5017617;28;20053;-76
2021/06/14 05:14:03;;;;;;;13.95;4.30;;;16.00;95.30;;;;;;5015752;28;20364;-77
2021/06/14 05:16:28;;;;;;;14.77;4.45;;;16.10;95.20;;;;;;5015873;28;20037;-74
2021/06/14 05:18:54;;;;;;;9.35;3.95;;;16.20;95.10;;;;;;5016103;28;20531;-76
2021/06/14 05:21:20;;;;;;;12.75;3.88;;;16.20;94.90;;;;;;5015902;28;20125;-76
2021/06/14 05:23:46;;;;;;;7.72;3.80;;;16.30;94.80;;;;;;5017361;28;20022;-76
2021/06/14 05:26:11;;;;;;;16.02;4.28;;;16.40;94.60;;;;;;5016019;28;20044;-77
2021/06/14 05:28:37;;;;;;;10.52;3.65;;;16.40;94.50;;;;;;5015739;28;20069;-75
2021/06/14 05:31:04;;;;;;;10.50;4.00;;;16.50;94.40;;;;;;5015661;28;20367;-74
2021/06/14 05:33:30;;;;;;;13.30;3.65;;;16.60;94.40;;;;;;5027269;28;20109;-84
2021/06/14 05:35:56;;;;;;;11.27;4.07;;;16.70;94.30;;;;;;4996310;28;20065;-76
2021/06/14 05:38:21;;;;;;;9.32;3.63;;;16.70;94.40;;;;;;5024155;28;20083;-89
2021/06/14 05:40:53;;;;;;;10.02;4.20;;;16.80;94.30;;;;;;5020811;28;20038;-88
2021/06/14 05:43:19;;;;;;;13.70;4.65;;;16.90;94.20;;;;;;5022801;28;20046;-91
2021/06/14 05:45:45;;;;;;;8.68;3.72;;;17.10;94.00;;;;;;5040288;28;20030;-81
2021/06/14 05:48:13;;;;;;;13.43;3.95;;;17.20;93.80;;;;;;5023940;28;20014;-89
2021/06/14 05:50:39;;;;;;;11.20;4.32;;;17.30;93.70;;;;;;5028238;28;20030;-91
2021/06/14 05:53:04;;;;;;;9.50;3.83;;;17.50;93.50;;;;;;5027561;28;20111;-79
2021/06/14 05:55:30;;;;;;;13.63;4.30;;;17.70;93.60;;;;;;5031345;28;20029;-94
2021/06/14 05:58:01;;;;;;;9.85;3.80;;;18.00;93.30;;;;;;5025916;28;20046;-87
2021/06/14 06:00:27;;;;;;;15.73;4.82;;;18.10;93.20;;;;;;5023468;28;20022;-87
2021/06/14 06:02:53;;;;;;;15.23;3.55;;;18.30;92.90;;;;;;5022492;28;20105;-89
2021/06/14 06:05:19;;;;;;;6.93;3.40;;;18.30;92.60;;;;;;5019570;28;20042;-88
2021/06/14 06:07:44;;;;;;;6.70;3.45;;;18.30;92.40;;;;;;5016769;28;20403;-85
2021/06/14 06:10:12;;;;;;;9.70;4.10;;;18.30;92.10;;;;;;5017497;28;20287;-87
2021/06/14 06:12:47;;;;;;;11.05;4.82;;;18.30;92.20;;;;;;5015107;28;20041;-92
2021/06/14 06:15:16;;;;;;;9.32;3.75;;;18.40;92.30;;;;;;5017705;28;20044;-86
2021/06/14 06:17:42;;;;;;;18.25;7.70;;;18.40;92.20;;;;;;5021497;28;20337;-93
2021/06/14 06:20:14;;;;;;;12.00;5.80;;;18.40;92.20;;;;;;5017479;28;20388;-93
2021/06/14 06:22:40;;;;;;;13.80;5.78;;;18.50;91.90;;;;;;5018916;28;20056;-90
2021/06/14 06:25:13;;;;;;;15.48;5.20;;;18.60;91.90;;;;;;5016082;28;20045;-90
2021/06/14 06:27:38;;;;;;;9.13;3.60;;;18.80;91.70;;;;;;5016797;28;20026;-90
2021/06/14 06:30:06;;;;;;;9.50;3.83;;;18.80;91.20;;;;;;5016714;28;20320;-91
2021/06/14 06:32:35;;;;;;;7.72;3.30;;;18.90;91.10;;;;;;5017598;28;20022;-90
2021/06/14 06:35:01;;;;;;;11.93;3.78;;;19.00;91.00;;;;;;5017154;28;20042;-91
2021/06/14 06:37:26;;;;;;;12.10;3.42;;;19.10;90.80;;;;;;5015372;28;20523;-89
2021/06/14 06:39:52;;;;;;;8.43;3.08;;;19.10;90.70;;;;;;5018467;28;20121;-94
2021/06/14 06:42:17;;;;;;;8.02;3.42;;;19.20;90.90;;;;;;5018277;28;20030;-91
2021/06/14 06:44:43;;;;;;;9.40;3.70;;;19.20;90.90;;;;;;5018161;28;20050;-90
2021/06/14 06:47:10;;;;;;;10.85;3.85;;;19.20;90.70;;;;;;5016496;28;20460;-88
2021/06/14 06:49:37;;;;;;;8.07;3.33;;;19.20;90.70;;;;;;5015103;28;20376;-92
2021/06/14 06:52:03;;;;;;;13.10;3.50;;;19.30;90.70;;;;;;5015015;28;20034;-91
2021/06/14 06:54:29;;;;;;;10.05;3.45;;;19.30;90.50;;;;;;5015534;28;20344;-89
2021/06/14 06:56:57;;;;;;;10.90;3.45;;;19.40;90.20;;;;;;5016170;28;20026;-91
2021/06/14 06:59:24;;;;;;;9.75;3.58;;;19.50;90.00;;;;;;5015133;28;20519;-86
2021/06/14 07:01:50;;;;;;;8.10;3.85;;;19.50;90.00;;;;;;5013912;28;20140;-94
2021/06/14 07:04:23;;;;;;;9.70;2.78;;;19.60;89.80;;;;;;5013818;28;20122;-88
2021/06/14 07:06:48;;;;;;;13.85;3.10;;;19.70;89.50;;;;;;5014273;28;20042;-88
2021/06/14 07:09:14;;;;;;;13.73;3.60;;;19.80;89.50;;;;;;5015447;28;20407;-86
2021/06/14 07:11:40;;;;;;;9.30;5.57;;;19.80;89.10;;;;;;5019678;28;20023;-85
2021/06/14 07:14:07;;;;;;;11.25;4.03;;;19.90;89.60;;;;;;5014539;28;20033;-87
2021/06/14 07:16:34;;;;;;;7.63;3.40;;;20.00;88.80;;;;;;5013567;28;20041;-91
2021/06/14 07:19:00;;;;;;;17.38;3.78;;;20.00;88.80;;;;;;5013794;28;20062;-88
2021/06/14 07:21:27;;;;;;;15.13;5.97;;;20.10;88.80;;;;;;5014494;28;20630;-91
2021/06/14 07:23:53;;;;;;;11.93;6.75;;;20.20;89.00;;;;;;5015717;28;20041;-89
2021/06/14 07:26:19;;;;;;;8.43;3.20;;;20.40;88.10;;;;;;5014510;28;20049;-90
2021/06/14 07:28:45;;;;;;;7.43;3.22;;;20.40;87.50;;;;;;5012460;28;20053;-88
2021/06/14 07:31:12;;;;;;;10.70;3.88;;;20.50;87.20;;;;;;5011472;28;20372;-84
2021/06/14 07:33:38;;;;;;;7.65;3.47;;;20.70;87.80;;;;;;5011216;28;20030;-86
2021/06/14 07:36:06;;;;;;;10.45;3.50;;;20.90;86.60;;;;;;5011343;28;20033;-84
2021/06/14 07:38:32;;;;;;;12.75;3.45;;;21.10;85.60;;;;;;5012655;28;20022;-88
2021/06/14 07:40:57;;;;;;;7.68;3.40;;;21.30;85.10;;;;;;5011080;28;20482;-89
2021/06/14 07:43:24;;;;;;;10.45;3.60;;;22.00;85.30;;;;;;5010775;28;20489;-75
2021/06/14 07:45:50;;;;;;;5.82;2.95;;;22.90;83.90;;;;;;5010074;28;20042;-78
2021/06/14 07:48:16;;;;;;;6.15;2.95;;;23.60;83.50;;;;;;5010399;28;20490;-76
2021/06/14 07:50:43;;;;;;;7.00;3.50;;;24.40;80.80;;;;;;5012048;28;20034;-77
2021/06/14 07:53:10;;;;;;;12.35;3.38;;;25.00;78.30;;;;;;5010858;28;20042;-77
2021/06/14 07:55:36;;;;;;;7.38;3.17;;;25.60;77.20;;;;;;5010572;28;20038;-77
2021/06/14 07:58:03;;;;;;;6.07;2.75;;;26.00;73.30;;;;;;5010275;28;20026;-77
2021/06/14 08:00:29;;;;;;;7.65;3.10;;;26.60;71.30;;;;;;5010027;28;20030;-77
2021/06/14 08:02:57;;;;;;;6.28;2.97;;;27.30;68.00;;;;;;5011701;28;20026;-76
2021/06/14 08:05:23;;;;;;;6.50;2.60;;;28.00;63.50;;;;;;5010842;28;20379;-77
2021/06/14 08:07:49;;;;;;;8.00;2.75;;;28.60;63.40;;;;;;5010241;28;20034;-76
2021/06/14 08:10:17;;;;;;;9.13;3.20;;;29.30;60.00;;;;;;5010039;28;20236;-78
2021/06/14 08:12:49;;;;;;;9.57;3.08;;;29.30;57.00;;;;;;5010345;28;20359;-77
2021/06/14 08:15:18;;;;;;;5.30;2.60;;;29.20;57.00;;;;;;5010339;28;20107;-75
2021/06/14 08:17:44;;;;;;;7.57;3.13;;;29.90;55.80;;;;;;5010650;28;20052;-77
2021/06/14 08:25:11;;;;;;;6.72;3.05;;;30.80;52.50;;;;;;5009998;28;20321;-75
2021/06/14 08:27:42;;;;;;;7.70;3.47;;;31.50;51.30;;;;;;5009372;28;20417;-75
2021/06/14 08:30:11;;;;;;;12.88;2.75;;;31.80;48.90;;;;;;5010106;28;20044;-75
2021/06/14 08:32:38;;;;;;;7.07;2.90;;;32.10;48.60;;;;;;5011346;28;20037;-75
2021/06/14 08:35:05;;;;;;;5.00;2.40;;;31.90;46.70;;;;;;5010027;28;20053;-77
2021/06/14 08:37:31;;;;;;;;;;;32.10;47.40;;;;;;5010160;28;20403;-75
2021/06/14 08:39:56;;;;;;;6.18;3.15;;;32.50;44.90;;;;;;5009413;28;19939;-76
2021/06/14 08:42:22;;;;;;;10.27;4.07;;;32.90;44.30;;;;;;5009231;28;20033;-76
2021/06/14 08:44:48;;;;;;;8.35;2.95;;;33.20;43.90;;;;;;5010854;28;20095;-77
2021/06/14 08:47:16;;;;;;;7.50;2.78;;;33.50;41.40;;;;;;5009980;28;20136;-77
2021/06/14 08:49:43;;;;;;;;;;;33.60;41.80;;;;;;5010490;28;20038;-77
2021/06/14 08:52:08;;;;;;;;;;;33.60;41.20;;;;;;5009613;28;20343;-76
2021/06/14 08:54:40;;;;;;;6.53;2.63;;;33.20;41.60;;;;;;5010132;28;19920;-78
2021/06/14 08:57:06;;;;;;;5.78;2.47;;;33.40;41.00;;;;;;5009865;28;20018;-76
2021/06/14 08:59:32;;;;;;;12.38;4.68;;;33.10;40.40;;;;;;5011728;28;20022;-77
2021/06/14 09:01:59;;;;;;;9.20;3.85;;;33.40;40.80;;;;;;5010144;28;20495;-78
2021/06/14 09:04:25;;;;;;;6.73;3.27;;;33.50;40.80;;;;;;5010508;28;20046;-81
2021/06/14 09:06:50;;;;;;;11.02;3.08;;;33.20;38.80;;;;;;5010824;28;20041;-82
2021/06/14 09:09:16;;;;;;;7.28;3.00;;;32.90;39.10;;;;;;5010977;28;20098;-83
2021/06/14 09:11:53;;;;;;;6.93;3.00;;;32.20;39.30;;;;;;5011005;28;20026;-84
2021/06/14 09:14:23;;;;;;;6.03;2.80;;;32.20;40.70;;;;;;5010865;28;20038;-83
2021/06/14 09:16:51;;;;;;;8.07;3.05;;;31.90;40.40;;;;;;5010256;28;20096;-86
2021/06/14 09:19:26;;;;;;;7.22;2.60;;;31.60;41.50;;;;;;5013150;28;20042;-85
2021/06/14 09:21:55;;;;;;;8.80;2.67;;;31.20;41.30;;;;;;5012682;28;20026;-83
2021/06/14 09:24:25;;;;;;;6.90;2.90;;;30.80;40.80;;;;;;5008727;28;20145;-78
2021/06/14 09:26:52;;;;;;;9.00;3.55;;;30.40;42.10;;;;;;5011846;28;20044;-88
2021/06/14 09:29:26;;;;;;;6.90;2.45;;;30.10;43.10;;;;;;5011378;28;20053;-85
2021/06/14 09:32:01;;;;;;;7.78;2.88;;;29.90;42.70;;;;;;5011037;28;20115;-87
2021/06/14 09:34:34;;;;;;;7.35;3.08;;;29.20;43.50;;;;;;5011433;28;20050;-86
2021/06/14 09:37:02;;;;;;;9.88;4.10;;;28.80;43.70;;;;;;5010226;28;20045;-85
2021/06/14 09:39:36;;;;;;;6.93;2.65;;;28.70;45.00;;;;;;5010353;28;20117;-86
2021/06/14 09:42:13;;;;;;;4.38;2.50;;;28.50;45.60;;;;;;5013618;28;20029;-83
2021/06/14 09:44:39;;;;;;;;;;;28.40;45.40;;;;;;5015346;28;20088;-84
2021/06/14 09:47:08;;;;;;;6.82;2.70;;;28.40;46.00;;;;;;5013508;28;19909;-84
2021/06/14 09:49:36;;;;;;;7.50;2.95;;;28.10;46.30;;;;;;5013343;28;20195;-84
2021/06/14 09:52:03;;;;;;;7.60;2.50;;;28.00;46.40;;;;;;5014525;28;20058;-86
2021/06/14 09:54:32;;;;;;;7.00;3.08;;;27.70;45.60;;;;;;5015959;28;20045;-91
2021/06/14 09:56:59;;;;;;;7.95;2.42;;;27.60;46.40;;;;;;5013922;28;20030;-87
2021/06/14 09:59:30;;;;;;;9.23;3.43;;;27.40;46.70;;;;;;5013921;28;20572;-84
2021/06/14 10:02:10;;;;;;;4.72;2.63;;;27.50;46.80;;;;;;5013825;28;20072;-85
2021/06/14 10:04:36;;;;;;;7.78;2.45;;;27.40;46.90;;;;;;5013132;28;20157;-84
2021/06/14 10:07:13;;;;;;;5.57;2.70;;;27.40;46.80;;;;;;5013156;28;20450;-82
2021/06/14 10:09:44;;;;;;;8.95;2.67;;;27.30;46.60;;;;;;5013117;28;20107;-82
2021/06/14 10:12:25;;;;;;;6.78;2.78;;;27.40;46.80;;;;;;5012808;28;20158;-79
2021/06/14 10:14:51;;;;;;;4.70;2.50;;;27.30;47.00;;;;;;5014698;28;20053;-81
2021/06/14 10:17:36;;;;;;;8.40;3.03;;;27.30;47.10;;;;;;5012585;28;20040;-82
2021/06/14 10:20:20;;;;;;;6.20;2.92;;;27.30;47.50;;;;;;5012807;28;20026;-80
2021/06/14 10:22:48;;;;;;;6.78;3.10;;;27.10;47.70;;;;;;5013147;28;20042;-84
2021/06/14 10:25:15;;;;;;;4.78;2.50;;;27.10;48.60;;;;;;5012893;28;20038;-73
2021/06/14 10:27:41;;;;;;;9.50;3.25;;;27.20;48.80;;;;;;5011849;28;20547;-77
2021/06/14 10:30:09;;;;;;;4.30;2.30;;;27.20;48.90;;;;;;5012163;28;20125;-77
2021/06/14 10:32:37;;;;;;;7.35;2.60;;;27.30;48.80;;;;;;5013539;28;20042;-79
2021/06/14 10:35:04;;;;;;;6.57;2.80;;;27.20;48.30;;;;;;5011997;28;20029;-77
2021/06/14 10:37:33;;;;;;;7.13;2.40;;;27.00;47.40;;;;;;5011681;28;20051;-79
2021/06/14 10:39:59;;;;;;;13.07;2.45;;;27.00;47.60;;;;;;5011990;28;20172;-77
2021/06/14 10:42:25;;;;;;;4.63;2.63;;;27.00;48.80;;;;;;5011953;28;20030;-80
2021/06/14 10:44:51;;;;;;;9.35;2.67;;;27.00;48.10;;;;;;5012759;28;20038;-82
2021/06/14 10:47:19;;;;;;;5.45;2.50;;;27.00;48.10;;;;;;5011715;28;20431;-82
2021/06/14 10:49:45;;;;;;;;;;;26.80;48.60;;;;;;5012684;28;20034;-83
2021/06/14 10:52:11;;;;;;;7.72;2.47;;;26.80;49.00;;;;;;5011594;28;19920;-78
2021/06/14 10:54:42;;;;;;;10.20;3.08;;;26.70;48.40;;;;;;5012080;28;20033;-78
2021/06/14 10:57:13;;;;;;;11.32;3.35;;;26.70;48.90;;;;;;5011988;28;20013;-81
2021/06/14 10:59:45;;;;;;;5.25;2.55;;;26.80;49.10;;;;;;5013181;28;20032;-79
2021/06/14 11:02:13;;;;;;;5.60;2.35;;;26.80;48.60;;;;;;5011944;28;20041;-80
2021/06/14 11:04:39;;;;;;;12.30;2.90;;;26.80;49.30;;;;;;5011758;28;20045;-81
2021/06/14 11:07:05;;;;;;;6.47;2.45;;;26.60;49.70;;;;;;5011577;28;20377;-81
2021/06/14 11:09:44;;;;;;;5.95;2.20;;;26.60;49.80;;;;;;5010358;28;20084;-80
2021/06/14 11:12:29;;;;;;;5.70;2.85;;;26.50;50.60;;;;;;5011059;28;20033;-80
2021/06/14 11:14:55;;;;;;;6.78;2.67;;;26.70;50.40;;;;;;5013089;28;20095;-81
2021/06/14 11:17:23;;;;;;;6.28;3.08;;;26.80;50.70;;;;;;5011405;28;20041;-80
2021/06/14 11:20:00;;;;;;;7.20;2.60;;;26.80;50.80;;;;;;5011654;28;20042;-80
2021/06/14 11:22:55;;;;;;;13.05;2.88;;;26.80;51.10;;;;;;5011853;28;20038;-79
2021/06/14 11:25:30;;;;;;;7.13;2.85;;;26.90;51.10;;;;;;5009619;28;20100;-79
2021/06/14 11:28:01;;;;;;;6.13;2.70;;;26.90;51.00;;;;;;5012662;28;20034;-81
2021/06/14 11:30:34;;;;;;;16.05;3.30;;;26.90;51.60;;;;;;5011575;28;20034;-83
2021/06/14 11:33:00;;;;;;;9.25;2.63;;;26.80;51.90;;;;;;5011540;28;20029;-76
2021/06/14 11:35:27;;;;;;;7.45;3.15;;;26.90;51.60;;;;;;5012619;28;20026;-80
2021/06/14 11:37:53;;;;;;;11.35;3.25;;;27.00;51.70;;;;;;5011028;28;20092;-80
2021/06/14 11:40:34;;;;;;;7.88;3.28;;;27.00;52.60;;;;;;5011122;28;20064;-78
2021/06/14 11:43:09;;;;;;;8.90;2.67;;;27.10;52.60;;;;;;5011018;28;20733;-79
2021/06/14 11:45:42;;;;;;;6.65;2.70;;;27.20;53.20;;;;;;5010469;28;20041;-77
2021/06/14 11:48:25;;;;;;;6.90;2.90;;;27.30;53.10;;;;;;5010612;28;20112;-81
2021/06/14 11:51:09;;;;;;;6.43;2.58;;;27.20;52.00;;;;;;5016770;28;20034;-82
2021/06/14 11:53:45;;;;;;;5.00;2.22;;;27.30;51.20;;;;;;5013242;28;20046;-76
2021/06/14 11:56:12;;;;;;;6.55;2.53;;;27.30;50.90;;;;;;5010191;28;20049;-79
2021/06/14 11:58:41;;;;;;;6.53;2.35;;;27.20;51.20;;;;;;5011070;28;20112;-79
2021/06/14 12:01:06;;;;;;;5.82;2.42;;;27.20;51.40;;;;;;5010655;28;20097;-78
2021/06/14 12:03:32;;;;;;;6.78;3.17;;;27.30;51.50;;;;;;5009929;28;20475;-79
2021/06/14 12:05:58;;;;;;;6.93;3.35;;;27.20;51.20;;;;;;5010349;28;20486;-79
2021/06/14 12:08:26;;;;;;;7.97;2.28;;;27.10;51.10;;;;;;5011962;28;20049;-79
2021/06/14 12:10:59;;;;;;;9.25;3.00;;;27.10;51.90;;;;;;5011401;28;20043;-79
2021/06/14 12:13:26;;;;;;;9.18;3.22;;;27.20;52.30;;;;;;5010566;28;20505;-78
2021/06/14 12:15:54;;;;;;;5.93;2.38;;;27.20;51.10;;;;;;5010702;28;20464;-79
2021/06/14 12:18:20;;;;;;;5.35;2.45;;;27.10;51.70;;;;;;5010415;28;20487;-78
2021/06/14 12:21:02;;;;;;;7.50;2.78;;;27.00;51.90;;;;;;5011869;28;20034;-79
2021/06/14 12:23:40;;;;;;;4.45;2.15;;;27.00;51.50;;;;;;5010611;28;20116;-83
2021/06/14 12:26:11;;;;;;;9.68;2.88;;;27.10;51.70;;;;;;5011885;28;20080;-78
2021/06/14 12:28:39;;;;;;;6.07;2.70;;;27.20;52.30;;;;;;5010111;28;20026;-80
2021/06/14 12:31:11;;;;;;;7.82;2.22;;;27.20;52.00;;;;;;5010387;28;20046;-81
2021/06/14 12:33:40;;;;;;;5.57;2.63;;;27.10;52.40;;;;;;5010033;28;20096;-78
2021/06/14 12:36:07;;;;;;;10.75;3.05;;;27.10;52.60;;;;;;5009969;28;20123;-80
2021/06/14 12:38:33;;;;;;;5.30;2.13;;;27.20;52.40;;;;;;5011308;28;20033;-79
2021/06/14 12:41:01;;;;;;;6.13;2.53;;;27.10;51.60;;;;;;5010284;28;20050;-80
2021/06/14 12:43:34;;;;;;;5.05;2.47;;;26.90;51.00;;;;;;5009770;28;20506;-78
2021/06/14 12:46:00;;;;;;;3.95;1.95;;;26.80;49.00;;;;;;5009906;28;20045;-80
2021/06/14 12:48:27;;;;;;;7.32;2.53;;;26.90;48.60;;;;;;5010251;28;20119;-81
2021/06/14 12:50:55;;;;;;;7.45;2.85;;;26.90;48.40;;;;;;5011633;28;20026;-81
2021/06/14 12:53:24;;;;;;;5.32;2.00;;;26.80;48.70;;;;;;5010265;28;20037;-82